Time;durP1;ratioP1;P1;durP2;ratioP2;P2;SDS_P1;SDS_P2;PMS_P1;PMS_P2;Temp;Humidity;BMP_temperature;BMP_pressure;BME280_temperature;BME280_humidity;BME280_pressure;Samples;Min_cycle;Max_cycle;Signal;HPM_P1;HPM_P2
2022/12/02 00:01:48;;;;;;;13.55;9.88;;;;;;;3.86;64.81;102104.34;5021612;28;20383;-77
2022/12/02 00:04:27;;;;;;;16.20;10.75;;;;;;;4.01;64.77;102099.94;5014218;28;20480;-77
2022/12/02 00:06:56;;;;;;;15.47;11.40;;;;;;;4.12;64.25;102094.03;5014401;28;20488;-77
2022/12/02 00:09:29;;;;;;;15.15;10.93;;;;;;;4.15;63.81;102106.97;5018074;28;20398;-76
2022/12/02 00:11:55;;;;;;;17.90;10.63;;;;;;;3.97;64.17;102103.69;5011999;28;20501;-76
2022/12/02 00:14:24;;;;;;;16.52;11.15;;;;;;;4.01;64.26;102100.78;5013008;28;20487;-76
2022/12/02 00:16:50;;;;;;;12.93;10.43;;;;;;;4.08;64.09;102106.50;5008534;28;20455;-76
2022/12/02 00:19:16;;;;;;;13.73;10.57;;;;;;;4.08;64.01;102105.66;5002669;28;20398;-78
2022/12/02 00:21:42;;;;;;;12.98;10.13;;;;;;;4.09;64.05;102104.72;5020048;28;20398;-76
2022/12/02 00:24:07;;;;;;;14.37;10.87;;;;;;;4.03;64.19;102108.56;4996386;28;20389;-77
2022/12/02 00:26:33;;;;;;;13.25;9.85;;;;;;;3.93;64.52;102105.66;5006679;28;20390;-76
2022/12/02 00:28:58;;;;;;;12.52;9.93;;;;;;;3.92;64.95;102105.75;5012502;28;20395;-77
2022/12/02 00:31:24;;;;;;;13.43;10.80;;;;;;;3.98;64.68;102102.72;5018172;28;20503;-77
2022/12/02 00:33:49;;;;;;;13.10;9.90;;;;;;;3.98;64.27;102094.88;5009528;28;20656;-77
2022/12/02 00:36:15;;;;;;;12.10;9.33;;;;;;;3.83;65.09;102102.75;5016441;28;20876;-77
2022/12/02 00:38:40;;;;;;;12.85;9.82;;;;;;;3.73;65.25;102100.78;5021959;28;20401;-77
2022/12/02 00:41:06;;;;;;;12.13;9.30;;;;;;;3.89;64.92;102096.28;5018035;28;20496;-77
2022/12/02 00:46:30;;;;;;;12.68;10.10;;;;;;;3.93;64.90;102100.41;5019058;28;20471;-77
2022/12/02 00:48:56;;;;;;;13.80;10.52;;;;;;;3.95;64.71;102095.06;5010603;28;20848;-77
2022/12/02 00:51:21;;;;;;;13.77;9.65;;;;;;;4.00;64.73;102090.41;5015160;28;20493;-77
2022/12/02 00:53:47;;;;;;;13.60;10.23;;;;;;;3.86;65.23;102091.22;5009211;28;20394;-77
2022/12/02 00:56:12;;;;;;;13.23;10.00;;;;;;;3.81;65.10;102091.47;5015832;28;20393;-77
2022/12/02 00:58:38;;;;;;;13.87;10.73;;;;;;;3.90;65.15;102091.88;5008684;28;20389;-77
2022/12/02 01:01:03;;;;;;;13.50;10.40;;;;;;;3.91;65.03;102085.72;5021897;28;20448;-77
2022/12/02 01:03:29;;;;;;;11.98;9.85;;;;;;;3.91;65.25;102093.56;5022235;28;20456;-77
2022/12/02 01:05:54;;;;;;;13.80;10.47;;;;;;;3.87;65.01;102084.19;5017927;28;20394;-77
2022/12/02 01:08:24;;;;;;;12.10;9.70;;;;;;;3.96;64.74;102083.63;5017336;28;20400;-77
2022/12/02 01:10:50;;;;;;;13.10;10.20;;;;;;;4.04;64.50;102077.94;5002782;28;20882;-77
2022/12/02 01:13:15;;;;;;;14.60;9.68;;;;;;;3.93;64.58;102076.78;5018901;28;20405;-77
2022/12/02 01:15:40;;;;;;;14.75;10.02;;;;;;;3.99;64.86;102079.03;5020243;28;20436;-77
2022/12/02 01:18:06;;;;;;;12.93;9.57;;;;;;;3.98;65.04;102081.75;5023664;28;20870;-77
2022/12/02 01:20:32;;;;;;;17.57;11.67;;;;;;;3.86;65.18;102075.47;5016411;28;20386;-76
2022/12/02 01:22:57;;;;;;;12.10;9.90;;;;;;;3.90;65.12;102081.38;5023594;28;20380;-77
2022/12/02 01:25:23;;;;;;;12.93;9.43;;;;;;;3.97;64.81;102080.91;5010165;28;20381;-77
2022/12/02 01:27:48;;;;;;;13.70;9.93;;;;;;;4.09;64.77;102088.97;5019655;28;20874;-77
2022/12/02 01:30:14;;;;;;;14.02;10.43;;;;;;;4.15;64.39;102091.22;5015800;28;20417;-77
2022/12/02 01:32:40;;;;;;;14.27;10.05;;;;;;;4.22;64.38;102089.91;5023498;28;20409;-76
2022/12/02 01:35:06;;;;;;;14.38;10.68;;;;;;;4.29;63.83;102090.38;5021317;28;20481;-76
2022/12/02 01:37:31;;;;;;;15.75;10.65;;;;;;;4.38;63.61;102088.03;5015533;28;20464;-78
2022/12/02 01:39:56;;;;;;;13.10;10.07;;;;;;;4.47;63.88;102096.28;5013866;28;20847;-78
2022/12/02 01:42:22;;;;;;;14.10;10.57;;;;;;;4.53;63.58;102095.88;5020252;28;20763;-76
2022/12/02 01:44:48;;;;;;;13.40;10.15;;;;;;;4.48;63.39;102092.69;5019838;28;20727;-76
2022/12/02 01:47:13;;;;;;;13.20;10.00;;;;;;;4.55;63.47;102094.00;4997119;28;20510;-76
2022/12/02 01:49:39;;;;;;;13.13;10.37;;;;;;;4.55;63.33;102092.19;4986019;28;20419;-76
2022/12/02 01:52:04;;;;;;;11.93;9.30;;;;;;;4.44;63.37;102084.16;5004669;28;20443;-76
2022/12/02 01:54:31;;;;;;;11.27;8.97;;;;;;;4.56;63.22;102091.28;4992928;28;20403;-76
2022/12/02 01:56:57;;;;;;;11.32;8.80;;;;;;;4.59;63.11;102090.22;4985198;28;20388;-76
2022/12/02 01:59:23;;;;;;;8.13;6.40;;;;;;;4.40;63.34;102087.94;5001896;28;20399;-76
2022/12/02 02:01:49;;;;;;;7.80;6.85;;;;;;;4.39;63.56;102086.22;4996050;28;20389;-76
2022/12/02 02:04:14;;;;;;;10.23;7.57;;;;;;;4.51;63.19;102090.72;5002520;28;20407;-76
2022/12/02 02:06:42;;;;;;;7.60;6.30;;;;;;;4.58;63.49;102085.94;4995683;28;20423;-77
2022/12/02 02:09:09;;;;;;;8.18;6.65;;;;;;;4.59;62.96;102093.72;4998974;28;20681;-76
2022/12/02 02:11:36;;;;;;;7.88;6.20;;;;;;;4.43;63.42;102090.38;5000622;28;20447;-76
2022/12/02 02:14:07;;;;;;;7.93;6.40;;;;;;;4.37;63.27;102098.63;4995561;28;20710;-76
2022/12/02 02:16:34;;;;;;;8.10;6.43;;;;;;;4.34;63.04;102097.03;5004620;28;20396;-76
2022/12/02 02:19:01;;;;;;;7.47;5.80;;;;;;;4.39;63.39;102094.97;4990577;28;20396;-76
2022/12/02 02:21:38;;;;;;;7.23;6.20;;;;;;;4.36;63.38;102089.91;5002217;28;20419;-76
2022/12/02 02:24:04;;;;;;;7.82;6.68;;;;;;;4.49;63.31;102097.03;5002286;28;20404;-76
2022/12/02 02:26:29;;;;;;;8.30;7.10;;;;;;;4.30;63.30;102086.81;5002354;28;20470;-76
2022/12/02 02:28:55;;;;;;;8.17;6.50;;;;;;;4.12;63.52;102094.88;4996453;28;20403;-76
2022/12/02 02:31:20;;;;;;;8.55;6.30;;;;;;;4.10;64.05;102088.03;5001572;28;20844;-76
2022/12/02 02:33:47;;;;;;;7.90;6.43;;;;;;;4.27;63.67;102093.09;5001631;28;20400;-76
2022/12/02 02:36:13;;;;;;;7.25;6.40;;;;;;;4.34;62.96;102086.53;5000046;28;20419;-76
2022/12/02 02:38:39;;;;;;;8.30;6.50;;;;;;;4.44;63.18;102093.84;5003838;28;20426;-77
2022/12/02 02:41:05;;;;;;;8.43;6.73;;;;;;;4.43;62.80;102097.38;5008009;28;20477;-76
2022/12/02 02:43:31;;;;;;;10.27;9.27;;;;;;;4.39;63.27;102094.09;4998987;28;20537;-76
2022/12/02 02:45:59;;;;;;;7.78;6.35;;;;;;;4.44;62.87;102096.47;5009140;28;20418;-76
2022/12/02 02:48:25;;;;;;;9.90;7.60;;;;;;;4.42;63.12;102096.56;5022179;28;20843;-76
2022/12/02 02:50:51;;;;;;;8.20;6.50;;;;;;;4.40;63.15;102096.63;5022058;28;20542;-75
2022/12/02 02:53:23;;;;;;;8.88;6.88;;;;;;;4.47;62.85;102098.91;5025906;28;20422;-76
2022/12/02 02:55:48;;;;;;;7.20;5.72;;;;;;;4.34;62.71;102107.53;5027323;28;20403;-76
2022/12/02 02:58:14;;;;;;;6.93;6.10;;;;;;;4.31;63.25;102106.88;5022574;28;20395;-76
2022/12/02 03:00:43;;;;;;;8.27;6.50;;;;;;;4.38;62.77;102101.16;5020965;28;20451;-76
2022/12/02 03:03:12;;;;;;;7.50;6.37;;;;;;;4.42;62.80;102104.44;5020167;28;20489;-76
2022/12/02 03:05:38;;;;;;;8.90;7.25;;;;;;;4.51;63.13;102100.38;5020165;28;20394;-76
2022/12/02 03:08:04;;;;;;;7.50;6.30;;;;;;;4.51;62.57;102097.75;5029207;28;20398;-76
2022/12/02 03:10:30;;;;;;;8.00;6.53;;;;;;;4.63;62.72;102104.88;5021896;28;20401;-75
2022/12/02 03:12:56;;;;;;;20.63;18.83;;;;;;;4.51;62.47;102103.00;5030102;28;20471;-76
2022/12/02 03:15:24;;;;;;;8.55;6.50;;;;;;;4.46;62.82;102100.66;5021074;28;20393;-76
2022/12/02 03:17:51;;;;;;;8.32;6.63;;;;;;;4.37;62.84;102096.81;5026388;28;21077;-76
2022/12/02 03:20:17;;;;;;;7.47;6.27;;;;;;;4.41;62.97;102100.09;5028256;28;20394;-76
2022/12/02 03:22:43;;;;;;;8.73;6.82;;;;;;;4.26;62.95;102101.06;5022296;28;20399;-76
2022/12/02 03:25:09;;;;;;;10.20;7.00;;;;;;;4.34;63.13;102101.41;5021009;28;20394;-76
2022/12/02 03:27:36;;;;;;;8.82;6.47;;;;;;;4.40;63.15;102096.63;5021376;28;20397;-76
2022/12/02 03:30:02;;;;;;;9.55;7.35;;;;;;;4.42;62.89;102096.56;5021556;28;20433;-76
2022/12/02 03:32:28;;;;;;;8.95;7.43;;;;;;;4.45;62.66;102085.88;5025343;28;20432;-76
2022/12/02 03:34:54;;;;;;;8.45;6.70;;;;;;;4.30;63.31;102092.88;5025707;28;20718;-76
2022/12/02 03:37:21;;;;;;;10.38;7.97;;;;;;;4.40;62.85;102087.94;5022497;28;20386;-76
2022/12/02 03:39:47;;;;;;;9.50;7.78;;;;;;;4.54;62.84;102090.53;5023580;28;20386;-77
2022/12/02 03:42:13;;;;;;;11.10;8.03;;;;;;;4.61;62.96;102098.88;5019113;28;20818;-77
2022/12/02 03:44:38;;;;;;;11.48;8.45;;;;;;;4.48;62.72;102097.94;5021869;28;20496;-77
2022/12/02 03:47:04;;;;;;;10.63;7.33;;;;;;;4.42;63.38;102088.66;5028191;28;20414;-77
2022/12/02 03:49:32;;;;;;;9.27;7.90;;;;;;;4.41;62.96;102094.84;5025671;28;20435;-77
2022/12/02 03:51:58;;;;;;;11.07;8.38;;;;;;;4.31;63.52;102091.13;5022700;28;20420;-77
2022/12/02 03:54:24;;;;;;;10.32;7.60;;;;;;;4.32;63.75;102082.31;5022800;28;20477;-77
2022/12/02 03:56:49;;;;;;;9.25;7.07;;;;;;;4.23;63.71;102083.72;5026372;28;20404;-77
2022/12/02 03:59:24;;;;;;;8.57;6.68;;;;;;;4.18;63.91;102088.44;5023451;28;20414;-77
2022/12/02 04:01:50;;;;;;;8.50;6.38;;;;;;;4.12;64.13;102076.50;5022451;28;20387;-77
2022/12/02 04:04:15;;;;;;;8.55;6.90;;;;;;;4.13;63.70;102080.81;5026380;28;20448;-77
2022/12/02 04:06:41;;;;;;;8.15;6.43;;;;;;;4.14;63.85;102081.66;5026575;28;20445;-77
2022/12/02 04:09:06;;;;;;;8.07;6.67;;;;;;;4.11;64.19;102071.38;5028910;28;20417;-77
2022/12/02 04:11:32;;;;;;;9.07;6.77;;;;;;;4.07;64.37;102081.22;5022545;28;20475;-77
2022/12/02 04:13:57;;;;;;;9.30;6.70;;;;;;;4.12;64.11;102089.63;5026054;28;20477;-77
2022/12/02 04:16:22;;;;;;;9.73;7.28;;;;;;;3.93;64.73;102075.97;5018910;28;20391;-76
2022/12/02 04:18:48;;;;;;;7.57;5.73;;;;;;;4.01;64.09;102084.19;5022262;28;20394;-77
2022/12/02 04:21:13;;;;;;;8.13;7.27;;;;;;;4.04;63.96;102085.81;5029292;28;20386;-77
2022/12/02 04:23:39;;;;;;;7.47;5.80;;;;;;;3.91;64.28;102078.66;5026628;28;20793;-77
2022/12/02 04:26:05;;;;;;;7.18;5.88;;;;;;;4.02;63.86;102086.72;5023338;28;20394;-77
2022/12/02 04:28:30;;;;;;;8.68;6.38;;;;;;;4.07;64.18;102085.59;5018881;28;20385;-77
2022/12/02 04:30:56;;;;;;;8.40;6.55;;;;;;;4.13;63.79;102085.22;5019390;28;20396;-77
2022/12/02 04:33:21;;;;;;;7.72;6.07;;;;;;;4.24;63.65;102090.66;5019623;28;20409;-77
2022/12/02 04:35:47;;;;;;;9.27;8.30;;;;;;;4.13;64.16;102086.06;5022723;28;20390;-77
2022/12/02 04:38:12;;;;;;;9.60;7.00;;;;;;;4.20;64.10;102089.16;5025301;28;20460;-77
2022/12/02 04:40:38;;;;;;;7.43;5.80;;;;;;;4.17;63.81;102090.19;5023630;28;20405;-77
2022/12/02 04:43:04;;;;;;;5.63;4.68;;;;;;;3.93;64.21;102089.91;5025505;28;20472;-77
2022/12/02 04:45:29;;;;;;;5.37;4.77;;;;;;;3.94;64.68;102098.63;5021379;28;20428;-77
2022/12/02 04:47:55;;;;;;;6.85;5.57;;;;;;;4.11;63.98;102098.44;5022617;28;20391;-77
2022/12/02 04:50:20;;;;;;;4.83;4.33;;;;;;;4.24;63.33;102101.16;5017335;28;20391;-77
2022/12/02 04:52:45;;;;;;;6.03;4.40;;;;;;;4.25;63.46;102100.22;5018296;28;20470;-77
2022/12/02 04:55:11;;;;;;;6.83;5.10;;;;;;;4.22;63.55;102096.00;5016678;28;20748;-77
2022/12/02 04:57:36;;;;;;;6.22;4.72;;;;;;;4.14;63.22;102103.50;5020729;28;20402;-77
2022/12/02 05:00:04;;;;;;;5.03;4.03;;;;;;;4.10;63.72;102099.38;5021650;28;20390;-77
2022/12/02 05:02:30;;;;;;;8.33;5.27;;;;;;;4.23;63.53;102099.47;5012147;28;20859;-76
2022/12/02 05:04:55;;;;;;;7.00;5.03;;;;;;;4.32;63.06;102113.81;5025747;28;20882;-77
2022/12/02 05:07:20;;;;;;;6.77;4.87;;;;;;;4.33;63.49;102108.47;5025360;28;20704;-77
2022/12/02 05:09:46;;;;;;;7.13;5.00;;;;;;;4.30;63.24;102103.38;5023060;28;20398;-77
2022/12/02 05:12:11;;;;;;;6.90;4.90;;;;;;;4.28;63.35;102113.16;5024192;28;20877;-77
2022/12/02 05:14:37;;;;;;;5.77;4.77;;;;;;;4.12;63.88;102105.38;5025811;28;20414;-77
2022/12/02 05:17:02;;;;;;;6.27;5.00;;;;;;;4.22;63.79;102110.91;5023414;28;20382;-77
2022/12/02 05:19:28;;;;;;;8.73;7.15;;;;;;;4.30;63.44;102105.19;5021328;28;20427;-77
2022/12/02 05:21:53;;;;;;;20.35;18.42;;;;;;;4.43;62.86;102105.25;5024879;28;20392;-77
2022/12/02 05:24:19;;;;;;;7.70;5.70;;;;;;;4.49;63.16;102112.78;5022753;28;20396;-76
2022/12/02 05:26:44;;;;;;;10.03;9.00;;;;;;;4.46;62.85;102108.53;5019116;28;20875;-76
2022/12/02 05:29:10;;;;;;;8.00;6.30;;;;;;;4.43;63.07;102115.75;5016221;28;20815;-77
2022/12/02 05:31:35;;;;;;;7.93;5.80;;;;;;;4.45;63.38;102108.63;5007417;28;20404;-76
2022/12/02 05:34:01;;;;;;;8.60;5.68;;;;;;;4.24;63.38;102106.41;5007758;28;20887;-76
2022/12/02 05:36:26;;;;;;;7.60;6.03;;;;;;;4.27;63.37;102102.75;5020581;28;20426;-77
2022/12/02 05:38:52;;;;;;;7.77;6.20;;;;;;;4.34;63.40;102112.78;5010033;28;20387;-76
2022/12/02 05:41:17;;;;;;;8.13;6.03;;;;;;;4.36;63.42;102105.66;5007001;28;20398;-76
2022/12/02 05:43:43;;;;;;;5.95;5.20;;;;;;;4.29;63.44;102114.00;5015114;28;20932;-76
2022/12/02 05:46:18;;;;;;;6.90;5.40;;;;;;;4.24;63.61;102116.06;5009360;28;20414;-77
2022/12/02 05:48:45;;;;;;;7.33;5.53;;;;;;;4.12;63.60;102109.78;5005252;28;20401;-77
2022/12/02 05:51:12;;;;;;;6.85;5.22;;;;;;;4.05;63.86;102119.78;5012222;28;20398;-76
2022/12/02 05:53:40;;;;;;;5.95;4.88;;;;;;;4.07;63.85;102103.97;5009135;28;20498;-77
2022/12/02 05:56:11;;;;;;;7.22;5.32;;;;;;;4.23;63.76;102120.47;5010279;28;20484;-77
2022/12/02 05:58:39;;;;;;;7.20;5.80;;;;;;;4.27;63.46;102124.59;5012563;28;20852;-76
2022/12/02 06:01:26;;;;;;;7.15;5.63;;;;;;;4.22;63.85;102122.25;5004794;28;20494;-76
2022/12/02 06:03:52;;;;;;;5.65;4.80;;;;;;;4.24;63.83;102118.69;5013962;28;20419;-76
2022/12/02 06:06:23;;;;;;;8.52;6.20;;;;;;;4.08;63.90;102124.88;5023070;28;20872;-77
2022/12/02 06:08:48;;;;;;;8.20;5.93;;;;;;;4.26;63.73;102128.16;5011186;28;20431;-77
2022/12/02 06:11:29;;;;;;;8.70;6.57;;;;;;;4.31;63.34;102130.50;5009634;28;20407;-77
2022/12/02 06:14:00;;;;;;;6.80;5.37;;;;;;;4.19;63.44;102130.28;5009065;28;20712;-77
2022/12/02 06:16:28;;;;;;;7.18;5.50;;;;;;;4.20;63.62;102133.78;5021518;28;20457;-77
2022/12/02 06:18:54;;;;;;;7.25;5.72;;;;;;;4.29;63.21;102132.38;5026685;28;20387;-76
2022/12/02 06:21:21;;;;;;;7.15;5.53;;;;;;;4.15;63.50;102122.72;5017424;28;21003;-77
2022/12/02 06:23:52;;;;;;;8.32;5.50;;;;;;;4.19;63.01;102125.06;5010583;28;20380;-78
2022/12/02 06:26:19;;;;;;;7.85;6.13;;;;;;;4.21;63.61;102131.06;5014199;28;20442;-77
2022/12/02 06:28:48;;;;;;;7.03;5.30;;;;;;;3.99;63.70;102120.19;5010181;28;20848;-77
2022/12/02 06:31:24;;;;;;;8.90;6.77;;;;;;;4.08;63.66;102122.25;5007073;28;20829;-76
2022/12/02 06:33:51;;;;;;;9.40;6.97;;;;;;;4.22;63.36;102135.38;5010621;28;20384;-77
2022/12/02 06:36:22;;;;;;;8.68;6.22;;;;;;;4.15;63.65;102128.81;5012377;28;20376;-77
2022/12/02 06:39:01;;;;;;;7.88;6.20;;;;;;;4.26;63.50;102141.28;5022503;28;20378;-77
2022/12/02 06:41:32;;;;;;;8.02;5.70;;;;;;;4.27;62.97;102132.47;5029122;28;20385;-77
2022/12/02 06:46:53;;;;;;;23.13;14.60;;;;;;;4.44;62.94;102136.69;5026299;28;20464;-77
2022/12/02 06:49:24;;;;;;;9.13;6.57;;;;;;;4.51;62.89;102142.41;5021727;28;20425;-76
2022/12/02 06:51:59;;;;;;;211.13;188.70;;;;;;;4.50;62.94;102145.94;5019019;28;20431;-76
2022/12/02 06:54:31;;;;;;;8.68;6.95;;;;;;;4.49;62.55;102152.16;5013771;28;20441;-76
2022/12/02 06:56:59;;;;;;;6.88;5.78;;;;;;;4.32;62.47;102148.78;5013495;28;20380;-76
2022/12/02 06:59:26;;;;;;;7.07;5.20;;;;;;;4.12;63.27;102149.13;5011001;28;20822;-77
2022/12/02 07:01:55;;;;;;;7.65;5.75;;;;;;;4.18;63.41;102143.53;5017016;28;20386;-77
2022/12/02 07:04:44;;;;;;;11.32;8.93;;;;;;;4.38;63.23;102144.94;5030497;28;20378;-77
2022/12/02 07:07:20;;;;;;;8.15;5.65;;;;;;;4.50;63.00;102154.69;5026977;28;20759;-77
2022/12/02 07:09:51;;;;;;;7.28;5.82;;;;;;;4.60;62.04;102157.59;5029803;28;20399;-76
2022/12/02 07:12:22;;;;;;;7.85;5.90;;;;;;;4.57;62.29;102160.38;5022866;28;20406;-77
2022/12/02 07:14:51;;;;;;;7.13;5.20;;;;;;;4.56;62.75;102153.47;5020819;28;20374;-77
2022/12/02 07:17:25;;;;;;;11.85;10.73;;;;;;;4.56;62.54;102159.56;5015040;28;20380;-77
2022/12/02 07:19:54;;;;;;;6.20;5.27;;;;;;;4.62;62.34;102158.31;5020584;28;20397;-76
2022/12/02 07:22:47;;;;;;;9.55;8.57;;;;;;;4.71;62.35;102149.88;5028923;28;20457;-78
2022/12/02 07:25:20;;;;;;;6.13;4.88;;;;;;;4.67;62.16;102161.50;5024993;28;20383;-77
2022/12/02 07:27:48;;;;;;;7.23;5.50;;;;;;;4.44;62.91;102162.94;5022117;28;20393;-77
2022/12/02 07:30:28;;;;;;;7.13;5.82;;;;;;;4.54;62.31;102171.94;5007582;28;20421;-77
2022/12/02 07:32:54;;;;;;;7.93;5.75;;;;;;;4.70;62.16;102170.97;5009011;28;20474;-77
2022/12/02 07:35:19;;;;;;;16.65;15.05;;;;;;;4.76;62.14;102168.81;5013534;28;20384;-77
2022/12/02 07:37:45;;;;;;;7.20;5.88;;;;;;;4.85;62.08;102169.19;5013244;28;20423;-77
2022/12/02 07:40:12;;;;;;;8.70;6.57;;;;;;;4.92;61.87;102160.81;5024675;28;20845;-78
2022/12/02 07:42:38;;;;;;;7.65;6.00;;;;;;;4.95;61.90;102165.88;5023118;28;20380;-77
2022/12/02 07:45:05;;;;;;;12.00;10.10;;;;;;;4.94;61.92;102160.72;5031338;28;20427;-78
2022/12/02 07:47:31;;;;;;;8.38;6.60;;;;;;;4.97;61.65;102173.69;5020903;28;20396;-76
2022/12/02 07:49:57;;;;;;;68.75;62.88;;;;;;;5.03;62.01;102173.28;5017312;28;20396;-77
2022/12/02 07:52:23;;;;;;;11.27;7.85;;;;;;;5.08;61.61;102171.19;5018963;28;20402;-76
2022/12/02 07:54:49;;;;;;;11.98;8.38;;;;;;;5.05;61.65;102176.66;5013329;28;20380;-76
2022/12/02 07:57:14;;;;;;;40.20;36.20;;;;;;;5.09;61.84;102177.28;5001942;28;20378;-77
2022/12/02 07:59:40;;;;;;;9.73;7.23;;;;;;;4.98;61.55;102172.72;5017862;28;20806;-78
2022/12/02 08:02:05;;;;;;;13.15;11.70;;;;;;;5.05;61.36;102183.69;5016329;28;20391;-76
2022/12/02 08:04:30;;;;;;;8.90;4.90;;;;;;;5.46;64.75;102183.66;5003845;28;20380;-77
2022/12/02 08:06:56;;;;;;;8.87;5.97;;;;;;;5.41;65.89;102184.91;5008816;28;20376;-78
2022/12/02 08:09:21;;;;;;;7.47;5.25;;;;;;;5.13;64.20;102191.91;5016363;28;20384;-78
2022/12/02 08:11:47;;;;;;;7.65;5.72;;;;;;;5.01;63.68;102188.31;5018158;28;20415;-78
2022/12/02 08:14:12;;;;;;;7.53;5.07;;;;;;;4.88;62.75;102193.50;5012353;28;20864;-77
2022/12/02 08:16:38;;;;;;;8.60;5.50;;;;;;;4.97;62.78;102195.53;5020361;28;20372;-77
2022/12/02 08:19:03;;;;;;;8.27;6.05;;;;;;;5.07;62.09;102189.69;5012521;28;20474;-77
2022/12/02 08:21:31;;;;;;;7.63;5.72;;;;;;;5.04;62.51;102190.75;5012570;28;20391;-76
2022/12/02 08:23:56;;;;;;;6.72;5.45;;;;;;;5.11;61.67;102199.94;5012418;28;20457;-76
2022/12/02 08:26:22;;;;;;;8.00;6.07;;;;;;;5.07;61.79;102192.31;5012131;28;20384;-77
2022/12/02 08:28:47;;;;;;;16.73;14.18;;;;;;;5.09;61.68;102200.94;5012854;28;20449;-76
2022/12/02 08:31:13;;;;;;;8.50;6.27;;;;;;;5.01;62.19;102190.09;5011078;28;20415;-78
2022/12/02 08:33:38;;;;;;;10.40;7.90;;;;;;;5.03;62.38;102196.09;5012589;28;20427;-77
2022/12/02 08:36:04;;;;;;;8.90;6.17;;;;;;;5.02;61.77;102197.84;5012769;28;20458;-80
2022/12/02 08:38:30;;;;;;;7.68;6.35;;;;;;;4.95;62.07;102193.94;5012661;28;20402;-76
2022/12/02 08:40:55;;;;;;;43.85;40.00;;;;;;;5.02;61.81;102197.84;5011999;28;20476;-77
2022/12/02 08:43:21;;;;;;;9.87;7.47;;;;;;;5.16;61.24;102194.34;5012674;28;20837;-76
2022/12/02 08:45:46;;;;;;;14.98;13.43;;;;;;;5.20;61.31;102193.22;5003997;28;20878;-77
2022/12/02 08:48:12;;;;;;;9.57;6.95;;;;;;;5.20;61.42;102193.22;5009371;28;20934;-77
2022/12/02 08:50:38;;;;;;;10.32;8.32;;;;;;;5.26;61.58;102194.63;5006821;28;20384;-77
2022/12/02 08:53:05;;;;;;;76.65;70.15;;;;;;;5.39;60.92;102194.69;5011725;28;20427;-76
2022/12/02 08:55:31;;;;;;;10.50;9.27;;;;;;;5.41;61.35;102192.78;5011328;28;20402;-76
2022/12/02 08:57:56;;;;;;;24.03;21.87;;;;;;;5.43;61.00;102185.63;5011596;28;20395;-78
2022/12/02 09:00:22;;;;;;;6.50;5.23;;;;;;;5.41;60.78;102183.09;5011372;28;20392;-77
2022/12/02 09:02:47;;;;;;;8.13;5.55;;;;;;;5.32;60.67;102181.06;5011963;28;20742;-76
2022/12/02 09:05:13;;;;;;;9.83;7.20;;;;;;;5.33;60.88;102180.13;5012070;28;20475;-76
2022/12/02 09:07:39;;;;;;;12.48;8.88;;;;;;;5.29;60.88;102186.53;5012121;28;20402;-80
2022/12/02 09:10:06;;;;;;;8.93;6.53;;;;;;;5.21;60.74;102186.19;5015455;28;20388;-78
2022/12/02 09:12:32;;;;;;;22.20;20.05;;;;;;;5.10;61.65;102194.75;5011881;28;20408;-76
2022/12/02 09:14:57;;;;;;;6.70;5.10;;;;;;;4.98;61.58;102185.84;5007305;28;20418;-77
2022/12/02 09:17:23;;;;;;;6.60;4.80;;;;;;;5.06;61.59;102180.97;5016663;28;20832;-78
2022/12/02 09:19:48;;;;;;;6.95;4.78;;;;;;;5.11;61.72;102184.16;5012292;28;20501;-77
2022/12/02 09:22:14;;;;;;;6.33;5.20;;;;;;;5.10;61.29;102184.25;5012030;28;20416;-77
2022/12/02 09:24:39;;;;;;;6.73;5.33;;;;;;;5.19;61.33;102173.13;5016783;28;20391;-76
2022/12/02 09:27:05;;;;;;;8.17;6.17;;;;;;;5.32;61.35;102175.81;5011549;28;20454;-77
2022/12/02 09:29:30;;;;;;;9.05;6.38;;;;;;;5.38;60.92;102171.94;5011926;28;20399;-77
2022/12/02 09:31:56;;;;;;;5.93;4.67;;;;;;;5.42;61.03;102176.03;5011829;28;20473;-78
2022/12/02 09:34:21;;;;;;;6.70;5.40;;;;;;;5.49;60.69;102172.94;5011910;28;20721;-77
2022/12/02 09:36:47;;;;;;;5.90;4.60;;;;;;;5.47;60.06;102174.78;5011743;28;20434;-77
2022/12/02 09:39:12;;;;;;;6.55;4.80;;;;;;;5.45;60.75;102175.84;5013682;28;20380;-77
2022/12/02 09:41:38;;;;;;;5.63;4.43;;;;;;;5.39;60.40;102178.91;5014311;28;20403;-78
2022/12/02 09:44:04;;;;;;;5.63;3.90;;;;;;;5.26;60.65;102174.44;5011507;28;20475;-76
2022/12/02 09:46:30;;;;;;;3.83;3.25;;;;;;;5.29;59.83;102165.50;5011214;28;20415;-77
2022/12/02 09:48:56;;;;;;;6.82;6.10;;;;;;;5.38;60.56;102158.78;5011824;28;20474;-77
2022/12/02 09:51:22;;;;;;;68.10;62.45;;;;;;;5.55;60.30;102164.63;5011470;28;20852;-77
2022/12/02 09:53:48;;;;;;;6.78;5.00;;;;;;;5.71;60.02;102166.25;5011757;28;20453;-77
2022/12/02 09:56:17;;;;;;;7.68;5.72;;;;;;;5.63;59.77;102164.13;5011413;28;20376;-76
2022/12/02 09:58:43;;;;;;;5.38;4.00;;;;;;;5.61;59.33;102171.25;5011164;28;20381;-76
2022/12/02 10:01:11;;;;;;;8.33;6.03;;;;;;;5.49;59.83;102166.81;5011302;28;20506;-75
2022/12/02 10:03:37;;;;;;;8.43;5.30;;;;;;;5.49;59.55;102162.41;5010868;28;20380;-76
2022/12/02 10:06:07;;;;;;;32.13;29.38;;;;;;;5.58;59.69;102163.56;5011357;28;20376;-77
2022/12/02 10:08:33;;;;;;;28.40;26.02;;;;;;;5.71;59.47;102159.19;5010897;28;20387;-77
2022/12/02 10:10:59;;;;;;;5.63;4.50;;;;;;;5.69;59.37;102147.06;5014364;28;20376;-77
2022/12/02 10:13:26;;;;;;;9.93;8.93;;;;;;;5.75;59.04;102165.94;5001562;28;20875;-76
2022/12/02 10:15:53;;;;;;;12.02;10.82;;;;;;;5.70;59.06;102160.13;5014374;28;20376;-77
2022/12/02 10:18:25;;;;;;;14.82;13.50;;;;;;;5.69;59.53;102163.72;5015011;28;20387;-75
2022/12/02 10:20:51;;;;;;;7.15;6.45;;;;;;;5.67;59.55;102151.59;5015231;28;20380;-77
2022/12/02 10:23:25;;;;;;;16.10;14.70;;;;;;;5.74;59.59;102163.41;5014838;28;20379;-77
2022/12/02 10:26:10;;;;;;;5.43;4.10;;;;;;;5.83;59.10;102162.78;5015360;28;20396;-77
2022/12/02 10:28:37;;;;;;;5.00;4.15;;;;;;;5.86;59.31;102156.47;5015234;28;20376;-77
2022/12/02 10:31:23;;;;;;;4.22;3.55;;;;;;;5.81;59.19;102159.41;5010558;28;20527;-77
2022/12/02 10:34:03;;;;;;;7.03;6.00;;;;;;;5.80;58.79;102164.78;5014886;28;20410;-77
2022/12/02 10:36:42;;;;;;;30.17;27.45;;;;;;;5.75;59.13;102154.56;5014629;28;20399;-76
2022/12/02 10:39:25;;;;;;;6.13;4.97;;;;;;;5.82;58.92;102155.84;5015852;28;20390;-77
2022/12/02 10:42:03;;;;;;;5.00;4.18;;;;;;;5.83;58.88;102148.78;5014065;28;20386;-76
2022/12/02 10:44:30;;;;;;;4.93;3.85;;;;;;;5.75;58.43;102149.31;5013454;28;20856;-78
2022/12/02 10:47:16;;;;;;;4.93;4.32;;;;;;;5.79;58.76;102150.78;5013384;28;20951;-77
2022/12/02 10:49:56;;;;;;;5.75;5.15;;;;;;;5.72;58.71;102147.72;5014782;28;20411;-77
2022/12/02 10:52:26;;;;;;;5.45;4.28;;;;;;;5.63;58.43;102143.06;5002851;28;20424;-77
2022/12/02 10:54:53;;;;;;;6.13;5.20;;;;;;;5.76;58.27;102145.72;5016523;28;20457;-79
2022/12/02 10:57:29;;;;;;;5.15;4.20;;;;;;;5.80;58.73;102149.84;5015981;28;20807;-78
2022/12/02 10:59:57;;;;;;;3.53;3.15;;;;;;;5.87;58.33;102153.75;5014889;28;20399;-78
2022/12/02 11:02:31;;;;;;;3.37;2.90;;;;;;;5.73;58.27;102149.41;5001110;28;20368;-76
2022/12/02 11:05:00;;;;;;;4.05;3.13;;;;;;;5.77;58.25;102146.59;5019137;28;20419;-75
2022/12/02 11:07:26;;;;;;;3.92;3.13;;;;;;;5.79;58.21;102149.94;5015749;28;20372;-76
2022/12/02 11:09:54;;;;;;;79.63;71.80;;;;;;;5.88;57.75;102150.16;5014302;28;20391;-78
2022/12/02 11:12:36;;;;;;;26.33;24.03;;;;;;;5.94;58.45;102154.16;4999467;28;20408;-76
2022/12/02 11:15:31;;;;;;;13.23;11.98;;;;;;;5.97;58.23;102153.16;5014486;28;20868;-78
2022/12/02 11:17:57;;;;;;;10.00;9.00;;;;;;;6.00;58.13;102156.41;5014329;28;20376;-76
2022/12/02 11:20:40;;;;;;;127.38;115.07;;;;;;;6.04;58.25;102154.41;5016897;28;20452;-75
2022/12/02 11:23:21;;;;;;;111.20;99.53;;;;;;;6.12;57.77;102152.09;5014731;28;20415;-77
2022/12/02 11:25:47;;;;;;;6.85;6.18;;;;;;;6.18;57.90;102156.13;5014396;28;20383;-77
2022/12/02 11:28:28;;;;;;;9.68;7.95;;;;;;;6.21;57.61;102159.38;5014450;28;20384;-78
2022/12/02 11:31:09;;;;;;;41.63;37.92;;;;;;;6.29;58.11;102151.78;5014757;28;20387;-76
2022/12/02 11:33:43;;;;;;;6.70;4.30;;;;;;;6.25;57.69;102152.13;5014078;28;20414;-76
2022/12/02 11:36:09;;;;;;;11.00;9.18;;;;;;;6.25;57.66;102152.94;5014371;28;20384;-79
2022/12/02 11:38:49;;;;;;;56.03;46.38;;;;;;;6.24;58.01;102160.94;5014529;28;20387;-77